createdAt,value
2017-06-30T00:00:31.455Z,14.10
2017-06-30T00:02:59.011Z,14.10
2017-06-30T00:05:26.536Z,14.10
2017-06-30T00:07:54.883Z,14.00
2017-06-30T00:10:22.398Z,13.90
2017-06-30T00:12:49.912Z,14.00
2017-06-30T00:15:17.464Z,14.00
2017-06-30T00:17:45.027Z,13.70
2017-06-30T00:20:13.308Z,13.70
2017-06-30T00:22:41.607Z,13.70
2017-06-30T00:25:09.167Z,13.60
2017-06-30T00:27:36.695Z,13.70
2017-06-30T00:30:04.999Z,13.50
2017-06-30T00:32:32.559Z,13.50
2017-06-30T00:35:00.083Z,13.50
2017-06-30T00:37:28.360Z,13.50
2017-06-30T00:39:56.720Z,13.40
2017-06-30T00:42:24.240Z,13.40
2017-06-30T00:44:51.760Z,13.40
2017-06-30T00:47:20.091Z,13.50
2017-06-30T00:49:47.600Z,13.50
2017-06-30T00:52:15.876Z,13.30
2017-06-30T00:54:43.467Z,13.30
2017-06-30T00:57:10.983Z,13.30
2017-06-30T00:59:38.496Z,13.30
2017-06-30T01:02:06.064Z,13.50
2017-06-30T01:04:33.585Z,13.60
2017-06-30T01:07:01.097Z,13.70
2017-06-30T01:09:28.657Z,13.70
2017-06-30T01:11:56.247Z,13.70
2017-06-30T01:14:23.760Z,13.60
2017-06-30T01:16:51.281Z,13.50
2017-06-30T01:19:18.852Z,13.60
2017-06-30T01:21:46.359Z,13.60
2017-06-30T01:24:14.652Z,13.50
2017-06-30T01:26:42.208Z,13.50
2017-06-30T01:29:09.728Z,13.60
2017-06-30T01:31:37.263Z,13.40
2017-06-30T01:34:06.732Z,13.30
2017-06-30T01:36:34.253Z,13.40
2017-06-30T01:39:01.765Z,13.30
2017-06-30T01:41:29.347Z,13.30
2017-06-30T01:43:56.863Z,13.50
2017-06-30T01:46:24.388Z,13.60
2017-06-30T01:48:52.725Z,13.50
2017-06-30T01:51:20.268Z,13.50
2017-06-30T01:53:47.775Z,13.60
2017-06-30T01:56:15.334Z,13.50
2017-06-30T01:58:43.616Z,13.50
2017-06-30T02:01:11.937Z,13.40
2017-06-30T02:03:39.492Z,13.40
2017-06-30T02:06:07.021Z,13.50
2017-06-30T02:08:34.581Z,13.60
2017-06-30T02:11:02.113Z,13.60
2017-06-30T02:13:29.645Z,13.50
2017-06-30T02:15:57.201Z,13.40
2017-06-30T02:18:24.719Z,13.30
2017-06-30T02:20:52.249Z,13.20
2017-06-30T02:23:20.599Z,13.00
2017-06-30T02:25:48.120Z,13.00
2017-06-30T02:28:15.650Z,13.20
2017-06-30T02:30:43.996Z,13.20
2017-06-30T02:33:11.523Z,13.10
2017-06-30T02:35:39.050Z,13.20
2017-06-30T02:38:06.609Z,13.00
2017-06-30T02:40:34.140Z,13.00
2017-06-30T02:43:01.656Z,13.00
2017-06-30T02:45:29.228Z,13.10
2017-06-30T02:47:56.780Z,13.30
2017-06-30T02:50:24.300Z,13.30
2017-06-30T02:52:51.851Z,13.20
2017-06-30T02:55:19.383Z,13.10
2017-06-30T02:57:46.900Z,13.30
2017-06-30T03:00:14.481Z,13.40
2017-06-30T03:02:41.992Z,13.40
2017-06-30T03:05:09.514Z,13.40
2017-06-30T03:07:37.130Z,13.30
2017-06-30T03:10:04.648Z,13.20
2017-06-30T03:12:32.930Z,13.40
2017-06-30T03:15:00.501Z,13.40
2017-06-30T03:17:28.028Z,13.40
2017-06-30T03:19:55.548Z,13.10
2017-06-30T03:22:23.108Z,13.10
2017-06-30T03:24:50.632Z,13.00
2017-06-30T03:27:18.152Z,13.20
2017-06-30T03:29:45.751Z,13.20
2017-06-30T03:32:13.271Z,13.00
2017-06-30T03:34:41.557Z,13.00
2017-06-30T03:37:09.896Z,13.10
2017-06-30T03:39:37.423Z,13.00
2017-06-30T03:42:04.941Z,13.20
2017-06-30T03:44:32.520Z,13.20
2017-06-30T03:47:00.041Z,13.00
2017-06-30T03:49:27.563Z,13.00
2017-06-30T03:51:55.129Z,12.90
2017-06-30T03:54:22.657Z,12.90
2017-06-30T03:56:50.185Z,13.00
2017-06-30T03:59:18.522Z,13.30
2017-06-30T04:01:46.044Z,13.20
2017-06-30T04:04:13.563Z,13.20
2017-06-30T04:06:41.120Z,13.30
2017-06-30T04:09:08.640Z,13.40
2017-06-30T04:11:36.156Z,13.70
2017-06-30T04:14:04.485Z,13.80
2017-06-30T04:16:32.008Z,13.80
2017-06-30T04:18:59.537Z,13.90
2017-06-30T04:21:27.877Z,14.10
2017-06-30T04:23:55.408Z,14.00
2017-06-30T04:26:22.934Z,14.40
2017-06-30T04:28:51.282Z,14.70
2017-06-30T04:31:18.812Z,14.60
2017-06-30T04:33:46.330Z,14.60
2017-06-30T04:36:14.650Z,14.40
2017-06-30T04:38:42.176Z,14.40
2017-06-30T04:41:09.742Z,14.40
2017-06-30T04:43:37.266Z,14.40
2017-06-30T04:46:05.559Z,14.30
2017-06-30T04:48:33.889Z,14.30
2017-06-30T04:51:01.416Z,14.30
2017-06-30T04:53:28.936Z,14.30
2017-06-30T04:55:57.263Z,14.20
2017-06-30T04:58:24.780Z,14.10
2017-06-30T05:00:53.061Z,14.40
2017-06-30T05:03:20.617Z,14.40
2017-06-30T05:05:48.141Z,14.40
2017-06-30T05:08:15.667Z,14.40
2017-06-30T05:10:43.223Z,14.30
2017-06-30T05:13:10.742Z,14.40
2017-06-30T05:15:39.336Z,14.60
2017-06-30T05:18:06.867Z,14.50
2017-06-30T05:20:35.158Z,14.50
2017-06-30T05:23:02.724Z,14.50
2017-06-30T05:25:30.255Z,14.50
2017-06-30T05:27:57.767Z,14.70
2017-06-30T05:30:25.328Z,14.70
2017-06-30T05:32:52.858Z,14.80
2017-06-30T05:35:20.388Z,15.00
2017-06-30T05:37:48.721Z,15.30
2017-06-30T05:40:16.235Z,15.30
2017-06-30T05:42:44.516Z,15.50
2017-06-30T05:45:12.059Z,15.40
2017-06-30T05:47:39.579Z,15.30
2017-06-30T05:50:07.139Z,15.40
2017-06-30T05:52:34.659Z,15.50
2017-06-30T05:55:02.218Z,15.90
2017-06-30T05:57:29.809Z,16.20
2017-06-30T05:59:57.327Z,16.50
2017-06-30T06:02:24.841Z,16.60
2017-06-30T06:04:52.423Z,16.60
2017-06-30T06:07:20.709Z,16.70
2017-06-30T06:09:48.987Z,16.70
2017-06-30T06:12:16.530Z,16.70
2017-06-30T06:14:44.110Z,16.70
2017-06-30T06:17:11.638Z,16.80
2017-06-30T06:19:39.196Z,16.60
2017-06-30T06:22:06.721Z,16.40
2017-06-30T06:24:34.276Z,16.40
2017-06-30T06:27:01.792Z,16.40
2017-06-30T06:29:29.328Z,16.30
2017-06-30T06:31:56.864Z,16.40
2017-06-30T06:34:24.392Z,16.40
2017-06-30T06:36:51.944Z,16.40
2017-06-30T06:39:19.476Z,16.60
2017-06-30T06:41:47.756Z,16.70
2017-06-30T06:44:15.303Z,16.60
2017-06-30T06:46:43.602Z,16.80
2017-06-30T06:49:11.160Z,16.80
2017-06-30T06:51:38.696Z,16.90
2017-06-30T06:54:07.025Z,17.20
2017-06-30T06:56:34.543Z,17.20
2017-06-30T06:59:02.120Z,17.50
2017-06-30T07:01:30.354Z,17.80
2017-06-30T07:03:58.644Z,17.50
2017-06-30T07:06:26.245Z,17.40
2017-06-30T07:08:53.763Z,17.60
2017-06-30T07:11:21.296Z,17.80
2017-06-30T07:13:49.640Z,18.00
2017-06-30T07:16:17.161Z,17.90
2017-06-30T07:18:44.776Z,18.40
2017-06-30T07:21:12.344Z,18.90
2017-06-30T07:23:39.939Z,19.00
2017-06-30T07:26:07.468Z,19.30
2017-06-30T07:28:35.760Z,18.80
2017-06-30T07:31:03.324Z,18.80
2017-06-30T07:33:30.863Z,18.70
2017-06-30T07:35:59.185Z,18.70
2017-06-30T07:38:26.747Z,18.60
2017-06-30T07:40:54.256Z,18.60
2017-06-30T07:43:22.581Z,18.80
2017-06-30T07:45:50.108Z,18.80
2017-06-30T07:48:17.629Z,19.30
2017-06-30T07:50:45.839Z,19.80
2017-06-30T07:53:13.392Z,20.00
2017-06-30T07:55:40.916Z,20.20
2017-06-30T07:58:08.483Z,20.20
2017-06-30T08:00:36.769Z,20.30
2017-06-30T08:03:05.052Z,20.50
2017-06-30T08:05:32.612Z,20.40
2017-06-30T08:08:00.147Z,20.60
2017-06-30T08:10:27.721Z,20.70
2017-06-30T08:12:55.245Z,21.00
2017-06-30T08:15:23.514Z,21.30
2017-06-30T08:17:51.088Z,21.50
2017-06-30T08:20:18.617Z,21.40
2017-06-30T08:22:46.150Z,21.50
2017-06-30T08:25:13.740Z,21.60
2017-06-30T08:27:41.281Z,21.80
2017-06-30T08:30:08.814Z,21.90
2017-06-30T08:32:36.380Z,21.70
2017-06-30T08:35:03.908Z,22.00
2017-06-30T08:37:32.264Z,22.50
2017-06-30T08:39:59.804Z,22.50
2017-06-30T08:42:27.412Z,22.40
2017-06-30T08:44:55.940Z,22.40
2017-06-30T08:47:23.592Z,22.40
2017-06-30T08:49:51.118Z,22.50
2017-06-30T08:52:18.664Z,22.70
2017-06-30T08:54:46.312Z,22.70
2017-06-30T08:57:14.649Z,22.70
2017-06-30T08:59:42.168Z,22.70
2017-06-30T09:02:09.741Z,23.00
2017-06-30T09:04:37.274Z,23.10
2017-06-30T09:07:04.850Z,23.20
2017-06-30T09:09:32.423Z,23.30
2017-06-30T09:11:59.969Z,23.60
2017-06-30T09:14:27.546Z,23.60
2017-06-30T09:16:55.069Z,23.60
2017-06-30T09:19:22.604Z,23.80
2017-06-30T09:21:51.500Z,23.80
2017-06-30T09:24:19.795Z,23.90
2017-06-30T09:26:47.401Z,23.90
2017-06-30T09:29:15.119Z,24.00
2017-06-30T09:31:43.496Z,23.90
2017-06-30T09:34:11.027Z,24.10
2017-06-30T09:36:39.341Z,24.10
2017-06-30T09:39:06.860Z,24.10
2017-06-30T09:41:35.188Z,23.70
2017-06-30T09:44:02.763Z,23.70
2017-06-30T09:46:31.080Z,23.90
2017-06-30T09:48:59.429Z,24.00
2017-06-30T09:51:26.969Z,23.90
2017-06-30T09:53:54.556Z,23.90
2017-06-30T09:56:22.076Z,24.20
2017-06-30T09:58:49.693Z,24.50
2017-06-30T10:01:17.257Z,24.60
2017-06-30T10:03:44.803Z,25.10
2017-06-30T10:06:12.376Z,25.00
2017-06-30T10:08:39.913Z,24.80
2017-06-30T10:11:08.252Z,24.80
2017-06-30T10:13:37.814Z,24.70
2017-06-30T10:16:05.348Z,24.90
2017-06-30T10:18:33.652Z,25.20
2017-06-30T10:21:01.571Z,25.20
2017-06-30T10:23:29.138Z,25.50
2017-06-30T10:25:56.656Z,25.30
2017-06-30T10:28:24.221Z,24.90
2017-06-30T10:30:51.770Z,24.90
2017-06-30T10:33:19.316Z,25.40
2017-06-30T10:35:46.854Z,25.70
2017-06-30T10:38:14.425Z,25.80
2017-06-30T10:40:41.959Z,26.10
2017-06-30T10:43:10.244Z,26.50
2017-06-30T10:45:37.786Z,26.40
2017-06-30T10:48:06.082Z,25.90
2017-06-30T10:50:33.660Z,25.90
2017-06-30T10:53:01.181Z,25.40
2017-06-30T10:55:29.481Z,25.60
2017-06-30T10:57:57.035Z,25.50
2017-06-30T11:00:24.556Z,25.80
2017-06-30T11:02:53.638Z,26.20
2017-06-30T11:05:21.175Z,26.20
2017-06-30T11:07:49.372Z,26.10
2017-06-30T11:10:20.089Z,25.10
2017-06-30T11:12:47.636Z,25.40
2017-06-30T11:15:15.200Z,25.80
2017-06-30T11:17:42.733Z,26.10
2017-06-30T11:20:10.270Z,26.60
2017-06-30T11:22:37.832Z,26.40
2017-06-30T11:25:05.354Z,26.00
2017-06-30T11:27:32.882Z,25.90
2017-06-30T11:30:00.447Z,26.40
2017-06-30T11:32:27.974Z,26.40
2017-06-30T11:34:55.532Z,26.90
2017-06-30T11:37:23.060Z,26.90
2017-06-30T11:39:51.349Z,26.60
2017-06-30T11:42:18.896Z,26.50
2017-06-30T11:44:47.185Z,27.40
2017-06-30T11:47:15.080Z,27.40
2017-06-30T11:49:42.611Z,27.60
2017-06-30T11:52:10.137Z,27.30
2017-06-30T11:54:38.253Z,26.40
2017-06-30T11:57:05.787Z,26.30
2017-06-30T11:59:33.325Z,27.20
2017-06-30T12:02:00.860Z,27.50
2017-06-30T12:04:28.799Z,27.50
2017-06-30T12:06:56.320Z,27.50
2017-06-30T12:09:23.868Z,27.10
2017-06-30T12:11:52.208Z,27.60
2017-06-30T12:14:19.741Z,27.60
2017-06-30T12:16:47.321Z,27.80
2017-06-30T12:19:15.586Z,27.60
2017-06-30T12:21:43.120Z,27.10
2017-06-30T12:24:10.664Z,27.00
2017-06-30T12:26:38.232Z,27.30
2017-06-30T12:29:05.845Z,27.50
2017-06-30T12:31:33.366Z,27.60
2017-06-30T12:34:00.906Z,27.50
2017-06-30T12:36:28.469Z,26.90
2017-06-30T12:38:56.020Z,26.80
2017-06-30T12:41:24.342Z,26.80
2017-06-30T12:43:51.873Z,26.60
2017-06-30T12:46:19.408Z,26.30
2017-06-30T12:48:46.952Z,26.30
2017-06-30T12:51:15.252Z,26.10
2017-06-30T12:53:42.833Z,26.10
2017-06-30T12:56:10.386Z,26.30
2017-06-30T12:58:37.925Z,26.30
2017-06-30T13:01:05.479Z,26.30
2017-06-30T13:03:33.005Z,26.20
2017-06-30T13:06:00.565Z,26.10
2017-06-30T13:08:28.840Z,25.80
2017-06-30T13:10:56.402Z,25.70
2017-06-30T13:13:23.938Z,25.80
2017-06-30T13:15:51.461Z,25.70
2017-06-30T13:18:19.021Z,25.70
2017-06-30T13:20:46.546Z,25.80
2017-06-30T13:23:14.076Z,25.80
2017-06-30T13:25:41.608Z,25.50
2017-06-30T13:28:09.172Z,25.10
2017-06-30T13:30:37.142Z,24.90
2017-06-30T13:33:04.674Z,24.70
2017-06-30T13:35:32.216Z,24.80
2017-06-30T13:37:59.764Z,24.90
2017-06-30T13:40:27.329Z,25.00
2017-06-30T13:42:54.864Z,25.10
2017-06-30T13:45:23.151Z,25.00
2017-06-30T13:47:50.721Z,25.00
2017-06-30T13:50:18.249Z,24.80
2017-06-30T13:52:46.584Z,24.90
2017-06-30T13:55:14.165Z,24.90
2017-06-30T13:57:41.682Z,24.90
2017-06-30T14:00:09.207Z,24.90
2017-06-30T14:02:37.544Z,23.90
2017-06-30T14:05:05.093Z,23.90
2017-06-30T14:07:32.604Z,23.40
2017-06-30T14:10:00.158Z,23.20
2017-06-30T14:12:27.718Z,23.00
2017-06-30T14:14:55.252Z,23.50
2017-06-30T14:17:22.816Z,23.90
2017-06-30T14:19:51.110Z,24.10
2017-06-30T14:22:19.393Z,24.10
2017-06-30T14:24:46.928Z,24.00
2017-06-30T14:27:14.464Z,23.90
2017-06-30T14:29:42.067Z,24.00
2017-06-30T14:32:09.604Z,24.00
2017-06-30T14:34:37.137Z,24.00
2017-06-30T14:37:04.673Z,23.90
2017-06-30T14:39:32.192Z,23.90
2017-06-30T14:41:59.756Z,24.10
2017-06-30T14:44:27.289Z,23.80
2017-06-30T14:46:55.636Z,24.00
2017-06-30T14:49:23.161Z,24.00
2017-06-30T14:51:50.690Z,24.10
2017-06-30T14:54:19.000Z,24.30
2017-06-30T14:56:46.532Z,24.30
2017-06-30T14:59:14.064Z,24.40
2017-06-30T15:01:41.620Z,24.40
2017-06-30T15:04:09.146Z,24.40
2017-06-30T15:06:36.677Z,24.40
2017-06-30T15:09:04.916Z,24.40
2017-06-30T15:11:33.198Z,24.10
2017-06-30T15:14:01.524Z,23.50
2017-06-30T15:16:29.070Z,23.40
2017-06-30T15:18:56.649Z,23.20
2017-06-30T15:21:24.193Z,23.20
2017-06-30T15:23:51.757Z,23.30
2017-06-30T15:26:19.280Z,23.30
2017-06-30T15:28:46.808Z,23.00
2017-06-30T15:31:14.338Z,23.20
2017-06-30T15:33:41.873Z,22.80
2017-06-30T15:36:09.435Z,22.60
2017-06-30T15:38:36.948Z,22.80
2017-06-30T15:41:05.232Z,23.20
2017-06-30T15:43:33.547Z,23.30
2017-06-30T15:46:01.076Z,23.20
2017-06-30T15:48:28.632Z,23.40
2017-06-30T15:50:56.215Z,23.40
2017-06-30T15:53:23.761Z,23.40
2017-06-30T15:55:51.334Z,23.30
2017-06-30T15:58:18.864Z,23.20
2017-06-30T16:00:46.399Z,23.10
2017-06-30T16:03:14.702Z,22.90
2017-06-30T16:05:42.224Z,22.90
2017-06-30T16:08:09.803Z,22.70
2017-06-30T16:10:37.373Z,22.50
2017-06-30T16:13:04.895Z,22.30
2017-06-30T16:15:32.466Z,22.10
2017-06-30T16:18:00.768Z,21.40
2017-06-30T16:20:28.296Z,21.40
2017-06-30T16:22:56.617Z,21.20
2017-06-30T16:25:24.162Z,21.10
2017-06-30T16:27:51.739Z,20.80
2017-06-30T16:30:19.272Z,20.70
2017-06-30T16:32:46.807Z,20.70
2017-06-30T16:35:15.125Z,20.60
2017-06-30T16:37:42.670Z,20.50
2017-06-30T16:40:10.224Z,20.50
2017-06-30T16:42:37.756Z,20.10
2017-06-30T16:45:06.044Z,19.80
2017-06-30T16:47:33.588Z,19.70
2017-06-30T16:50:01.147Z,19.50
2017-06-30T16:52:29.445Z,19.60
2017-06-30T16:54:57.017Z,19.50
2017-06-30T16:57:24.532Z,19.90
2017-06-30T16:59:52.068Z,20.00
2017-06-30T17:02:19.610Z,20.00
2017-06-30T17:04:47.129Z,19.90
2017-06-30T17:07:14.792Z,19.90
2017-06-30T17:09:42.325Z,19.70
2017-06-30T17:12:10.623Z,19.20
2017-06-30T17:14:38.176Z,19.20
2017-06-30T17:17:05.696Z,19.20
2017-06-30T17:19:33.277Z,19.10
2017-06-30T17:22:01.568Z,19.50
2017-06-30T17:24:29.094Z,19.40
2017-06-30T17:26:56.637Z,19.10
2017-06-30T17:29:24.157Z,19.00
2017-06-30T17:31:51.713Z,18.80
2017-06-30T17:34:19.275Z,18.70
2017-06-30T17:36:46.799Z,18.70
2017-06-30T17:39:15.251Z,18.40
2017-06-30T17:41:42.776Z,18.40
2017-06-30T17:44:10.337Z,18.40
2017-06-30T17:46:37.872Z,18.20
2017-06-30T17:49:05.399Z,18.20
2017-06-30T17:51:33.759Z,18.00
2017-06-30T17:54:01.327Z,18.00
2017-06-30T17:56:28.887Z,17.90
2017-06-30T17:58:56.412Z,18.00
2017-06-30T18:01:23.936Z,18.10
2017-06-30T18:03:51.471Z,18.10
2017-06-30T18:06:19.761Z,18.00
2017-06-30T18:08:47.326Z,17.90
2017-06-30T18:11:14.848Z,18.00
2017-06-30T18:13:43.147Z,17.90
2017-06-30T18:16:10.687Z,17.90
2017-06-30T18:18:38.260Z,17.70
2017-06-30T18:21:05.820Z,17.70
2017-06-30T18:23:33.384Z,17.60
2017-06-30T18:26:00.900Z,17.70
2017-06-30T18:28:28.478Z,17.60
2017-06-30T18:30:56.787Z,17.50
2017-06-30T18:33:24.306Z,17.40
2017-06-30T18:35:52.615Z,17.60
2017-06-30T18:38:20.822Z,17.60
2017-06-30T18:40:48.382Z,17.60
2017-06-30T18:43:15.910Z,17.70
2017-06-30T18:45:43.437Z,17.70
2017-06-30T18:48:11.753Z,17.40
2017-06-30T18:50:39.276Z,17.40
2017-06-30T18:53:07.617Z,17.30
2017-06-30T18:55:35.142Z,17.30
2017-06-30T18:58:02.665Z,17.20
2017-06-30T19:00:30.206Z,17.10
2017-06-30T19:02:58.504Z,16.90
2017-06-30T19:05:26.091Z,16.90
2017-06-30T19:07:53.620Z,16.90
2017-06-30T19:10:21.140Z,16.70
2017-06-30T19:12:48.681Z,16.70
2017-06-30T19:15:16.202Z,16.70
2017-06-30T19:17:43.762Z,16.70
2017-06-30T19:20:11.290Z,16.90
2017-06-30T19:22:39.581Z,16.80
2017-06-30T19:25:07.135Z,16.70
2017-06-30T19:27:34.664Z,16.80
2017-06-30T19:30:02.240Z,16.70
2017-06-30T19:32:30.544Z,16.70
2017-06-30T19:34:58.070Z,16.70
2017-06-30T19:37:26.381Z,16.50
2017-06-30T19:39:53.921Z,16.40
2017-06-30T19:42:21.453Z,16.50
2017-06-30T19:44:48.988Z,16.60
2017-06-30T19:47:16.536Z,16.50
2017-06-30T19:49:44.093Z,16.40
2017-06-30T19:52:11.637Z,16.30
2017-06-30T19:54:39.200Z,16.40
2017-06-30T19:57:06.753Z,16.50
2017-06-30T19:59:34.280Z,16.50
2017-06-30T20:02:01.842Z,16.40
2017-06-30T20:04:29.364Z,16.50
2017-06-30T20:06:56.889Z,16.40
2017-06-30T20:09:24.421Z,16.50
2017-06-30T20:11:51.944Z,16.50
2017-06-30T20:14:19.520Z,16.20
2017-06-30T20:16:47.809Z,16.20
2017-06-30T20:19:15.332Z,16.20
2017-06-30T20:21:42.872Z,16.20
2017-06-30T20:24:10.403Z,16.20
2017-06-30T20:26:37.961Z,16.10
2017-06-30T20:29:05.486Z,16.20
2017-06-30T20:31:33.766Z,16.40
2017-06-30T20:34:01.309Z,16.30
2017-06-30T20:36:29.607Z,16.40
2017-06-30T20:38:57.133Z,16.40
2017-06-30T20:41:25.449Z,16.30
2017-06-30T20:43:52.976Z,16.20
2017-06-30T20:46:20.568Z,16.20
2017-06-30T20:48:48.092Z,16.10
2017-06-30T20:51:16.380Z,16.30
2017-06-30T20:53:43.948Z,16.20
2017-06-30T20:56:11.476Z,16.30
2017-06-30T20:58:39.864Z,16.20
2017-06-30T21:01:08.152Z,15.90
2017-06-30T21:03:35.680Z,15.90
2017-06-30T21:06:03.217Z,15.90
2017-06-30T21:08:30.736Z,15.90
2017-06-30T21:10:58.313Z,15.80
2017-06-30T21:13:25.833Z,15.60
2017-06-30T21:15:53.346Z,15.80
2017-06-30T21:18:20.900Z,15.90
2017-06-30T21:20:48.416Z,16.10
2017-06-30T21:23:15.970Z,16.30
2017-06-30T21:25:43.495Z,16.30
2017-06-30T21:28:11.062Z,16.30
2017-06-30T21:30:39.352Z,16.40
2017-06-30T21:33:07.681Z,16.30
2017-06-30T21:35:35.196Z,16.30
2017-06-30T21:38:02.733Z,16.50
2017-06-30T21:40:31.048Z,16.50
2017-06-30T21:42:58.584Z,16.40
2017-06-30T21:45:26.161Z,16.40
2017-06-30T21:47:54.520Z,16.30
2017-06-30T21:50:22.048Z,16.30
2017-06-30T21:52:49.579Z,16.50
2017-06-30T21:55:17.096Z,16.50
2017-06-30T21:57:44.660Z,16.50
2017-06-30T22:00:12.188Z,16.50
2017-06-30T22:02:40.485Z,16.20
2017-06-30T22:05:08.031Z,16.20
2017-06-30T22:07:35.556Z,16.20
2017-06-30T22:10:03.128Z,16.20
2017-06-30T22:12:31.434Z,16.30
2017-06-30T22:14:58.965Z,16.30
2017-06-30T22:17:27.277Z,16.20
2017-06-30T22:19:54.796Z,16.10
2017-06-30T22:22:22.357Z,16.10
2017-06-30T22:24:50.677Z,16.20
2017-06-30T22:27:18.201Z,16.20
2017-06-30T22:29:46.512Z,16.30
2017-06-30T22:32:14.077Z,16.20
2017-06-30T22:34:41.646Z,16.30
2017-06-30T22:37:09.202Z,16.30
2017-06-30T22:39:36.728Z,16.30
2017-06-30T22:42:04.377Z,16.20
2017-06-30T22:44:31.908Z,16.10
2017-06-30T22:46:59.440Z,16.10
2017-06-30T22:49:27.032Z,16.20
2017-06-30T22:51:55.320Z,16.20
2017-06-30T22:54:22.884Z,16.10
2017-06-30T22:56:50.420Z,16.00
2017-06-30T22:59:18.733Z,16.00
2017-06-30T23:01:46.284Z,15.90
2017-06-30T23:04:13.805Z,15.90
2017-06-30T23:06:41.369Z,15.80
2017-06-30T23:09:09.653Z,15.80
2017-06-30T23:11:37.173Z,15.80
2017-06-30T23:14:04.708Z,15.90
2017-06-30T23:16:32.224Z,16.00
2017-06-30T23:19:00.560Z,16.10
2017-06-30T23:21:28.073Z,16.10
2017-06-30T23:23:55.603Z,16.20
2017-06-30T23:26:23.972Z,16.20
2017-06-30T23:28:51.508Z,16.10
2017-06-30T23:31:19.044Z,16.20
2017-06-30T23:33:46.562Z,16.20
2017-06-30T23:36:14.896Z,16.10
2017-06-30T23:38:42.421Z,16.00
2017-06-30T23:41:09.945Z,16.10
2017-06-30T23:43:37.506Z,16.10
2017-06-30T23:46:05.795Z,16.20
2017-06-30T23:48:33.331Z,16.10
2017-06-30T23:51:01.640Z,16.20
2017-06-30T23:53:29.182Z,16.10
2017-06-30T23:55:56.752Z,16.20
2017-06-30T23:58:24.284Z,16.10
